createdAt,value
2019-02-22T00:01:02.935Z,25.10
2019-02-22T00:05:55.929Z,23.23
2019-02-22T00:10:48.776Z,23.30
2019-02-22T00:15:41.746Z,24.13
2019-02-22T00:20:34.598Z,24.07
2019-02-22T00:25:27.531Z,24.03
2019-02-22T00:30:21.594Z,25.33
2019-02-22T00:35:14.683Z,24.07
2019-02-22T00:40:07.554Z,25.43
2019-02-22T00:45:00.463Z,22.97
2019-02-22T00:49:53.345Z,22.17
2019-02-22T00:54:46.226Z,21.97
2019-02-22T00:59:39.152Z,22.67
2019-02-22T01:04:32.064Z,21.77
2019-02-22T01:09:24.969Z,20.03
2019-02-22T01:14:17.841Z,21.80
2019-02-22T01:19:10.697Z,20.83
2019-02-22T01:24:03.690Z,20.97
2019-02-22T01:28:56.574Z,21.63
2019-02-22T01:33:49.432Z,21.20
2019-02-22T01:38:42.302Z,22.43
2019-02-22T01:43:35.145Z,21.30
2019-02-22T01:48:28.042Z,21.93
2019-02-22T01:53:20.926Z,21.97
2019-02-22T01:58:13.814Z,22.33
2019-02-22T02:03:06.662Z,23.43
2019-02-22T02:07:59.582Z,22.53
2019-02-22T02:12:52.435Z,24.03
2019-02-22T02:17:45.320Z,24.80
2019-02-22T02:22:38.179Z,24.57
2019-02-22T02:27:31.072Z,25.20
2019-02-22T02:32:23.924Z,25.03
2019-02-22T02:37:16.810Z,26.33
2019-02-22T02:42:09.688Z,25.97
2019-02-22T02:47:02.527Z,26.60
2019-02-22T02:51:55.398Z,25.67
2019-02-22T02:56:48.257Z,25.63
2019-02-22T03:01:41.146Z,24.43
2019-02-22T03:06:42.508Z,25.60
2019-02-22T03:11:35.363Z,25.03
2019-02-22T03:16:29.317Z,23.60
2019-02-22T03:21:22.201Z,22.97
2019-02-22T03:26:15.042Z,23.33
2019-02-22T03:31:07.939Z,24.07
2019-02-22T03:36:00.795Z,22.93
2019-02-22T03:40:53.662Z,23.60
2019-02-22T03:45:46.546Z,23.73
2019-02-22T03:50:39.799Z,24.60
2019-02-22T03:55:32.844Z,24.63
2019-02-22T04:00:25.715Z,23.80
2019-02-22T04:05:19.899Z,23.17
2019-02-22T04:10:13.052Z,23.40
2019-02-22T04:15:06.768Z,22.47
2019-02-22T04:19:59.595Z,23.23
2019-02-22T04:24:52.467Z,24.13
2019-02-22T04:29:45.360Z,23.20
2019-02-22T04:34:38.263Z,23.13
2019-02-22T04:39:31.128Z,22.83
2019-02-22T04:44:24.016Z,22.20
2019-02-22T04:49:16.880Z,23.40
2019-02-22T04:54:09.742Z,21.97
2019-02-22T04:59:02.612Z,23.10
2019-02-22T05:03:55.487Z,22.97
2019-02-22T05:08:48.418Z,22.63
2019-02-22T05:13:41.495Z,23.43
2019-02-22T05:18:34.506Z,22.90
2019-02-22T05:23:27.357Z,22.90
2019-02-22T05:28:20.264Z,21.90
2019-02-22T05:33:13.179Z,22.83
2019-02-22T05:38:06.066Z,22.80
2019-02-22T05:42:59.009Z,23.30
2019-02-22T05:47:52.011Z,22.83
2019-02-22T05:52:44.865Z,23.67
2019-02-22T05:57:37.753Z,23.30
2019-02-22T06:02:33.609Z,23.17
2019-02-22T06:07:25.545Z,22.53
2019-02-22T06:12:18.700Z,22.53
2019-02-22T06:17:14.780Z,23.83
2019-02-22T06:22:06.564Z,23.40
2019-02-22T06:26:59.430Z,23.70
2019-02-22T06:31:52.288Z,23.13
2019-02-22T06:36:45.162Z,24.47
2019-02-22T06:41:38.023Z,24.10
2019-02-22T06:46:30.943Z,24.43
2019-02-22T06:51:23.832Z,24.03
2019-02-22T06:56:16.697Z,25.30
2019-02-22T07:01:09.671Z,23.37
2019-02-22T07:06:02.572Z,24.40
2019-02-22T07:11:05.537Z,25.13
2019-02-22T07:15:58.376Z,25.97
2019-02-22T07:20:53.086Z,25.67
2019-02-22T07:25:45.961Z,26.63
2019-02-22T07:30:38.900Z,26.93
2019-02-22T07:35:32.037Z,26.10
2019-02-22T07:40:24.962Z,27.30
2019-02-22T07:45:17.828Z,29.63
2019-02-22T07:50:11.527Z,29.70
2019-02-22T07:55:05.493Z,29.83
2019-02-22T07:59:58.367Z,31.27
2019-02-22T08:04:51.255Z,30.93
2019-02-22T08:09:44.137Z,31.83
2019-02-22T08:14:37.090Z,32.70
2019-02-22T08:19:29.945Z,33.73
2019-02-22T08:24:25.967Z,32.83
2019-02-22T08:29:19.210Z,33.73
2019-02-22T08:34:12.103Z,34.10
2019-02-22T08:39:05.514Z,33.90
2019-02-22T08:43:58.434Z,35.37
2019-02-22T08:48:51.319Z,34.47
2019-02-22T08:53:44.733Z,35.30
2019-02-22T08:58:37.598Z,34.33
2019-02-22T09:03:30.483Z,35.13
2019-02-22T09:08:23.337Z,32.93
2019-02-22T09:13:16.202Z,34.30
2019-02-22T09:18:09.083Z,34.37
2019-02-22T09:23:01.969Z,34.90
2019-02-22T09:27:54.847Z,33.10
2019-02-22T09:32:47.713Z,32.47
2019-02-22T09:37:40.785Z,32.53
2019-02-22T09:42:33.699Z,30.90
2019-02-22T09:47:26.588Z,30.23
2019-02-22T09:52:19.617Z,31.07
2019-02-22T09:57:12.931Z,32.07
2019-02-22T10:02:05.912Z,30.63
2019-02-22T10:06:58.840Z,28.40
2019-02-22T10:11:51.773Z,28.23
2019-02-22T10:16:44.665Z,28.30
2019-02-22T10:21:37.554Z,25.93
2019-02-22T10:26:30.577Z,26.43
2019-02-22T10:31:23.450Z,24.67
2019-02-22T10:36:16.300Z,25.43
2019-02-22T10:41:09.176Z,24.37
2019-02-22T10:46:02.078Z,24.50
2019-02-22T10:50:55.900Z,22.80
2019-02-22T10:55:48.772Z,18.47
2019-02-22T11:00:41.784Z,20.97
2019-02-22T11:05:36.586Z,19.17
2019-02-22T11:10:29.602Z,18.77
2019-02-22T11:15:22.510Z,18.87
2019-02-22T11:20:15.408Z,20.17
2019-02-22T11:25:10.246Z,18.17
2019-02-22T11:30:03.738Z,19.93
2019-02-22T11:34:56.642Z,18.30
2019-02-22T11:39:49.560Z,16.27
2019-02-22T11:44:42.420Z,11.90
2019-02-22T11:49:35.314Z,11.17
2019-02-22T11:54:28.193Z,9.60
2019-02-22T11:59:21.074Z,8.90
2019-02-22T12:04:13.979Z,6.97
2019-02-22T12:09:06.830Z,7.37
2019-02-22T12:14:04.497Z,7.47
2019-02-22T12:18:57.396Z,8.67
2019-02-22T12:23:52.892Z,9.20
2019-02-22T12:28:45.319Z,7.70
2019-02-22T12:33:39.704Z,9.83
2019-02-22T12:38:32.893Z,8.43
2019-02-22T12:43:25.806Z,7.20
2019-02-22T12:48:21.437Z,7.17
2019-02-22T12:53:14.329Z,6.27
2019-02-22T12:58:07.205Z,4.93
2019-02-22T13:03:02.265Z,5.47
2019-02-22T13:07:55.578Z,8.10
2019-02-22T13:12:50.445Z,5.40
2019-02-22T13:17:43.444Z,5.63
2019-02-22T13:22:36.307Z,5.93
2019-02-22T13:27:29.573Z,5.10
2019-02-22T13:32:22.447Z,5.00
2019-02-22T13:37:15.324Z,4.20
2019-02-22T13:42:08.187Z,4.83
2019-02-22T13:47:05.991Z,4.80
2019-02-22T13:52:02.074Z,3.83
2019-02-22T13:56:55.008Z,4.17
2019-02-22T14:01:47.888Z,3.83
2019-02-22T14:06:40.890Z,4.27
2019-02-22T14:11:33.757Z,3.20
2019-02-22T14:16:26.626Z,3.33
2019-02-22T14:21:19.487Z,2.97
2019-02-22T14:26:12.496Z,3.27
2019-02-22T14:31:05.415Z,3.00
2019-02-22T14:35:58.279Z,4.00
2019-02-22T14:40:51.153Z,3.33
2019-02-22T14:45:49.331Z,4.10
2019-02-22T14:50:38.821Z,4.47
2019-02-22T14:55:31.711Z,3.57
2019-02-22T15:00:24.613Z,3.17
2019-02-22T15:05:17.594Z,3.70
2019-02-22T15:10:10.917Z,3.53
2019-02-22T15:15:06.071Z,3.60
2019-02-22T15:19:59.002Z,3.30
2019-02-22T15:24:53.607Z,3.03
2019-02-22T15:29:47.079Z,3.27
2019-02-22T15:34:40.178Z,3.50
2019-02-22T15:39:33.154Z,3.43
2019-02-22T15:44:25.992Z,3.57
2019-02-22T15:49:20.187Z,3.00
2019-02-22T15:54:13.118Z,3.27
2019-02-22T15:59:05.975Z,3.60
2019-02-22T16:04:32.080Z,4.27
2019-02-22T16:09:25.045Z,3.83
2019-02-22T16:14:17.895Z,3.60
2019-02-22T16:19:10.776Z,3.33
2019-02-22T16:24:03.772Z,3.70
2019-02-22T16:28:56.730Z,3.80
2019-02-22T16:33:49.629Z,4.13
2019-02-22T16:38:42.510Z,4.00
2019-02-22T16:43:35.448Z,4.03
2019-02-22T16:48:28.303Z,4.87
2019-02-22T16:53:21.175Z,4.77
2019-02-22T16:58:14.074Z,4.97
2019-02-22T17:03:06.944Z,5.13
2019-02-22T17:07:59.811Z,4.80
2019-02-22T17:12:52.663Z,4.37
2019-02-22T17:17:45.521Z,4.60
2019-02-22T17:22:38.396Z,4.87
2019-02-22T17:27:31.418Z,5.80
2019-02-22T17:32:24.291Z,5.77
2019-02-22T17:37:17.131Z,5.03
2019-02-22T17:42:10.112Z,5.37
2019-02-22T17:47:02.992Z,5.40
2019-02-22T17:51:55.894Z,5.47
2019-02-22T17:56:48.752Z,6.33
2019-02-22T18:01:41.774Z,5.67
2019-02-22T18:06:34.630Z,5.90
2019-02-22T18:11:27.582Z,6.17
2019-02-22T18:16:20.403Z,6.27
2019-02-22T18:21:13.282Z,6.37
2019-02-22T18:26:06.165Z,7.57
2019-02-22T18:30:59.483Z,7.40
2019-02-22T18:35:52.366Z,8.17
2019-02-22T18:40:45.216Z,8.27
2019-02-22T18:45:38.103Z,8.03
2019-02-22T18:50:31.069Z,7.57
2019-02-22T18:55:25.845Z,9.00
2019-02-22T19:00:19.712Z,9.30
2019-02-22T19:05:13.709Z,9.27
2019-02-22T19:10:08.596Z,9.70
2019-02-22T19:15:01.471Z,9.23
2019-02-22T19:19:54.324Z,10.07
2019-02-22T19:24:47.199Z,10.63
2019-02-22T19:29:40.904Z,10.13
2019-02-22T19:34:33.797Z,10.63
2019-02-22T19:39:26.653Z,10.63
2019-02-22T19:44:19.547Z,10.40
2019-02-22T19:49:12.437Z,10.70
2019-02-22T19:54:05.313Z,11.40
2019-02-22T19:58:58.208Z,10.30
2019-02-22T20:03:51.082Z,10.07
2019-02-22T20:08:43.955Z,9.90
2019-02-22T20:13:37.026Z,10.73
2019-02-22T20:18:29.903Z,9.97
2019-02-22T20:23:23.123Z,10.50
2019-02-22T20:28:15.993Z,10.53
2019-02-22T20:33:08.842Z,10.00
2019-02-22T20:38:01.722Z,10.13
2019-02-22T20:42:54.596Z,9.97
2019-02-22T20:47:47.609Z,9.07
2019-02-22T20:52:40.465Z,10.57
2019-02-22T20:57:34.839Z,9.63
2019-02-22T21:02:29.652Z,9.70
2019-02-22T21:07:22.530Z,10.23
2019-02-22T21:12:15.402Z,9.77
2019-02-22T21:17:08.345Z,10.10
2019-02-22T21:22:01.219Z,9.97
2019-02-22T21:26:54.076Z,10.30
2019-02-22T21:31:47.077Z,9.97
2019-02-22T21:36:39.994Z,9.57
2019-02-22T21:41:32.864Z,10.10
2019-02-22T21:46:25.728Z,10.40
2019-02-22T21:51:18.610Z,9.53
2019-02-22T21:56:11.464Z,9.93
2019-02-22T22:01:04.584Z,10.47
2019-02-22T22:05:57.456Z,10.00
2019-02-22T22:10:50.343Z,10.50
2019-02-22T22:15:43.235Z,10.57
2019-02-22T22:20:36.103Z,10.87
2019-02-22T22:25:30.884Z,10.33
2019-02-22T22:30:24.978Z,10.00
2019-02-22T22:35:22.316Z,9.90
2019-02-22T22:40:15.496Z,10.40
2019-02-22T22:45:09.831Z,11.57
2019-02-22T22:50:02.712Z,11.40
2019-02-22T22:54:56.399Z,10.83
2019-02-22T22:59:49.295Z,11.87
2019-02-22T23:04:42.632Z,11.20
2019-02-22T23:09:39.264Z,11.03
2019-02-22T23:14:32.235Z,11.87
2019-02-22T23:19:25.196Z,11.50
2019-02-22T23:24:18.346Z,11.67
2019-02-22T23:29:11.240Z,11.50
2019-02-22T23:34:04.124Z,11.27
2019-02-22T23:38:58.185Z,11.93
2019-02-22T23:43:51.181Z,11.97
2019-02-22T23:48:44.620Z,11.27
2019-02-22T23:53:38.061Z,11.57
2019-02-22T23:58:31.369Z,10.93
